sensor_id;sensor_type;location;lat;lon;timestamp;P1;durP1;ratioP1;P2;durP2;ratioP2
75554;SDS011;66087;53.126;17.960;2023-04-25T00:02:20;8.90;;;4.80;;
75554;SDS011;66087;53.126;17.960;2023-04-25T00:04:48;7.40;;;3.00;;
75554;SDS011;66087;53.126;17.960;2023-04-25T00:07:17;7.30;;;4.30;;
75554;SDS011;66087;53.126;17.960;2023-04-25T00:09:44;8.90;;;4.20;;
75554;SDS011;66087;53.126;17.960;2023-04-25T00:12:10;9.30;;;4.90;;
75554;SDS011;66087;53.126;17.960;2023-04-25T00:14:36;7.80;;;4.50;;
75554;SDS011;66087;53.126;17.960;2023-04-25T00:17:02;9.20;;;5.00;;
75554;SDS011;66087;53.126;17.960;2023-04-25T00:19:29;6.70;;;3.80;;
75554;SDS011;66087;53.126;17.960;2023-04-25T00:21:55;9.40;;;4.30;;
75554;SDS011;66087;53.126;17.960;2023-04-25T00:24:21;8.00;;;4.40;;
75554;SDS011;66087;53.126;17.960;2023-04-25T00:26:47;7.90;;;4.30;;
75554;SDS011;66087;53.126;17.960;2023-04-25T00:29:14;6.10;;;3.10;;
75554;SDS011;66087;53.126;17.960;2023-04-25T00:31:40;8.10;;;4.30;;
75554;SDS011;66087;53.126;17.960;2023-04-25T00:34:06;6.40;;;3.50;;
75554;SDS011;66087;53.126;17.960;2023-04-25T00:36:34;7.00;;;3.70;;
75554;SDS011;66087;53.126;17.960;2023-04-25T00:39:02;9.80;;;4.00;;
75554;SDS011;66087;53.126;17.960;2023-04-25T00:41:30;5.60;;;2.90;;
75554;SDS011;66087;53.126;17.960;2023-04-25T00:43:56;5.80;;;3.10;;
75554;SDS011;66087;53.126;17.960;2023-04-25T00:46:24;6.30;;;3.10;;
75554;SDS011;66087;53.126;17.960;2023-04-25T00:48:50;6.80;;;3.80;;
75554;SDS011;66087;53.126;17.960;2023-04-25T00:51:20;5.90;;;3.20;;
75554;SDS011;66087;53.126;17.960;2023-04-25T00:53:48;6.20;;;3.10;;
75554;SDS011;66087;53.126;17.960;2023-04-25T00:56:15;7.70;;;4.20;;
75554;SDS011;66087;53.126;17.960;2023-04-25T00:58:42;6.10;;;3.30;;
75554;SDS011;66087;53.126;17.960;2023-04-25T01:01:10;6.90;;;3.60;;
75554;SDS011;66087;53.126;17.960;2023-04-25T01:03:37;6.40;;;3.90;;
75554;SDS011;66087;53.126;17.960;2023-04-25T01:06:10;6.00;;;2.50;;
75554;SDS011;66087;53.126;17.960;2023-04-25T01:08:37;6.10;;;3.10;;
75554;SDS011;66087;53.126;17.960;2023-04-25T01:11:04;7.20;;;3.70;;
75554;SDS011;66087;53.126;17.960;2023-04-25T01:13:35;7.10;;;3.60;;
75554;SDS011;66087;53.126;17.960;2023-04-25T01:16:02;7.80;;;3.80;;
75554;SDS011;66087;53.126;17.960;2023-04-25T01:18:30;7.50;;;3.50;;
75554;SDS011;66087;53.126;17.960;2023-04-25T01:20:56;6.60;;;3.10;;
75554;SDS011;66087;53.126;17.960;2023-04-25T01:23:36;7.10;;;3.70;;
75554;SDS011;66087;53.126;17.960;2023-04-25T01:26:04;8.80;;;3.70;;
75554;SDS011;66087;53.126;17.960;2023-04-25T01:28:32;7.20;;;2.90;;
75554;SDS011;66087;53.126;17.960;2023-04-25T01:31:19;7.10;;;3.60;;
75554;SDS011;66087;53.126;17.960;2023-04-25T01:33:45;6.40;;;3.00;;
75554;SDS011;66087;53.126;17.960;2023-04-25T01:36:11;6.00;;;3.40;;
75554;SDS011;66087;53.126;17.960;2023-04-25T01:38:59;7.00;;;4.20;;
75554;SDS011;66087;53.126;17.960;2023-04-25T01:41:27;5.50;;;2.40;;
75554;SDS011;66087;53.126;17.960;2023-04-25T01:43:53;6.30;;;3.60;;
75554;SDS011;66087;53.126;17.960;2023-04-25T01:46:19;5.90;;;3.10;;
75554;SDS011;66087;53.126;17.960;2023-04-25T01:48:45;6.60;;;2.90;;
75554;SDS011;66087;53.126;17.960;2023-04-25T01:51:12;5.40;;;2.50;;
75554;SDS011;66087;53.126;17.960;2023-04-25T01:53:38;5.20;;;2.80;;
75554;SDS011;66087;53.126;17.960;2023-04-25T01:56:05;6.50;;;3.70;;
75554;SDS011;66087;53.126;17.960;2023-04-25T01:58:34;7.20;;;3.60;;
75554;SDS011;66087;53.126;17.960;2023-04-25T02:01:13;6.00;;;3.00;;
75554;SDS011;66087;53.126;17.960;2023-04-25T02:03:48;5.50;;;2.70;;
75554;SDS011;66087;53.126;17.960;2023-04-25T02:06:35;6.90;;;3.30;;
75554;SDS011;66087;53.126;17.960;2023-04-25T02:09:01;4.50;;;2.40;;
75554;SDS011;66087;53.126;17.960;2023-04-25T02:11:27;5.90;;;3.00;;
75554;SDS011;66087;53.126;17.960;2023-04-25T02:14:13;3.70;;;2.00;;
75554;SDS011;66087;53.126;17.960;2023-04-25T02:16:45;3.90;;;1.90;;
75554;SDS011;66087;53.126;17.960;2023-04-25T02:19:12;4.60;;;2.20;;
75554;SDS011;66087;53.126;17.960;2023-04-25T02:21:38;5.40;;;2.50;;
75554;SDS011;66087;53.126;17.960;2023-04-25T02:24:04;6.20;;;3.40;;
75554;SDS011;66087;53.126;17.960;2023-04-25T02:26:30;5.20;;;2.50;;
75554;SDS011;66087;53.126;17.960;2023-04-25T02:28:56;3.50;;;1.70;;
75554;SDS011;66087;53.126;17.960;2023-04-25T02:31:23;4.30;;;2.00;;
75554;SDS011;66087;53.126;17.960;2023-04-25T02:33:50;3.90;;;1.70;;
75554;SDS011;66087;53.126;17.960;2023-04-25T02:36:15;5.60;;;2.20;;
75554;SDS011;66087;53.126;17.960;2023-04-25T02:38:41;3.90;;;1.70;;
75554;SDS011;66087;53.126;17.960;2023-04-25T02:41:07;5.20;;;2.60;;
75554;SDS011;66087;53.126;17.960;2023-04-25T02:43:33;4.30;;;2.20;;
75554;SDS011;66087;53.126;17.960;2023-04-25T02:46:00;3.50;;;1.70;;
75554;SDS011;66087;53.126;17.960;2023-04-25T02:48:26;4.00;;;2.10;;
75554;SDS011;66087;53.126;17.960;2023-04-25T02:50:52;3.60;;;1.50;;
75554;SDS011;66087;53.126;17.960;2023-04-25T02:53:19;3.80;;;1.80;;
75554;SDS011;66087;53.126;17.960;2023-04-25T02:55:48;4.50;;;2.30;;
75554;SDS011;66087;53.126;17.960;2023-04-25T02:58:15;4.80;;;2.30;;
75554;SDS011;66087;53.126;17.960;2023-04-25T03:00:45;3.10;;;1.20;;
75554;SDS011;66087;53.126;17.960;2023-04-25T03:03:11;4.40;;;1.90;;
75554;SDS011;66087;53.126;17.960;2023-04-25T03:05:37;4.40;;;1.30;;
75554;SDS011;66087;53.126;17.960;2023-04-25T03:08:03;3.80;;;1.80;;
75554;SDS011;66087;53.126;17.960;2023-04-25T03:10:29;3.40;;;1.90;;
75554;SDS011;66087;53.126;17.960;2023-04-25T03:12:58;3.80;;;1.70;;
75554;SDS011;66087;53.126;17.960;2023-04-25T03:15:25;2.60;;;1.00;;
75554;SDS011;66087;53.126;17.960;2023-04-25T03:17:52;3.10;;;1.50;;
75554;SDS011;66087;53.126;17.960;2023-04-25T03:20:18;3.90;;;1.70;;
75554;SDS011;66087;53.126;17.960;2023-04-25T03:22:44;4.50;;;1.80;;
75554;SDS011;66087;53.126;17.960;2023-04-25T03:25:11;3.70;;;1.60;;
75554;SDS011;66087;53.126;17.960;2023-04-25T03:27:37;3.00;;;1.30;;
75554;SDS011;66087;53.126;17.960;2023-04-25T03:30:03;3.60;;;1.00;;
75554;SDS011;66087;53.126;17.960;2023-04-25T03:32:30;3.10;;;1.10;;
75554;SDS011;66087;53.126;17.960;2023-04-25T03:34:56;2.20;;;1.30;;
75554;SDS011;66087;53.126;17.960;2023-04-25T03:37:22;2.20;;;0.80;;
75554;SDS011;66087;53.126;17.960;2023-04-25T03:39:48;3.20;;;1.50;;
75554;SDS011;66087;53.126;17.960;2023-04-25T03:42:15;2.20;;;0.90;;
75554;SDS011;66087;53.126;17.960;2023-04-25T03:44:43;2.30;;;0.90;;
75554;SDS011;66087;53.126;17.960;2023-04-25T03:47:09;2.30;;;1.00;;
75554;SDS011;66087;53.126;17.960;2023-04-25T03:49:36;3.20;;;1.40;;
75554;SDS011;66087;53.126;17.960;2023-04-25T03:52:04;2.90;;;1.50;;
75554;SDS011;66087;53.126;17.960;2023-04-25T03:54:34;1.70;;;0.70;;
75554;SDS011;66087;53.126;17.960;2023-04-25T03:57:05;2.30;;;0.90;;
75554;SDS011;66087;53.126;17.960;2023-04-25T03:59:33;3.80;;;1.80;;
75554;SDS011;66087;53.126;17.960;2023-04-25T04:01:59;3.00;;;1.50;;
75554;SDS011;66087;53.126;17.960;2023-04-25T04:04:25;1.50;;;0.50;;
75554;SDS011;66087;53.126;17.960;2023-04-25T04:06:53;3.70;;;1.60;;
75554;SDS011;66087;53.126;17.960;2023-04-25T04:09:25;2.80;;;1.10;;
75554;SDS011;66087;53.126;17.960;2023-04-25T04:11:54;2.90;;;1.50;;
75554;SDS011;66087;53.126;17.960;2023-04-25T04:14:20;3.00;;;1.00;;
75554;SDS011;66087;53.126;17.960;2023-04-25T04:16:48;2.60;;;1.20;;
75554;SDS011;66087;53.126;17.960;2023-04-25T04:19:14;3.40;;;1.20;;
75554;SDS011;66087;53.126;17.960;2023-04-25T04:21:44;3.80;;;1.30;;
75554;SDS011;66087;53.126;17.960;2023-04-25T04:24:10;3.40;;;1.20;;
75554;SDS011;66087;53.126;17.960;2023-04-25T04:26:48;2.90;;;1.10;;
75554;SDS011;66087;53.126;17.960;2023-04-25T04:29:24;2.00;;;0.80;;
75554;SDS011;66087;53.126;17.960;2023-04-25T04:32:03;2.10;;;0.80;;
75554;SDS011;66087;53.126;17.960;2023-04-25T04:34:30;2.70;;;0.90;;
75554;SDS011;66087;53.126;17.960;2023-04-25T04:36:57;1.70;;;0.70;;
75554;SDS011;66087;53.126;17.960;2023-04-25T04:39:23;4.60;;;1.40;;
75554;SDS011;66087;53.126;17.960;2023-04-25T04:41:59;2.60;;;1.00;;
75554;SDS011;66087;53.126;17.960;2023-04-25T04:44:38;2.70;;;1.00;;
75554;SDS011;66087;53.126;17.960;2023-04-25T04:47:17;2.30;;;0.90;;
75554;SDS011;66087;53.126;17.960;2023-04-25T04:49:56;3.20;;;1.40;;
75554;SDS011;66087;53.126;17.960;2023-04-25T04:52:31;3.60;;;1.30;;
75554;SDS011;66087;53.126;17.960;2023-04-25T04:55:07;3.20;;;1.30;;
75554;SDS011;66087;53.126;17.960;2023-04-25T04:57:44;3.10;;;1.30;;
75554;SDS011;66087;53.126;17.960;2023-04-25T05:00:16;3.40;;;1.40;;
75554;SDS011;66087;53.126;17.960;2023-04-25T05:02:52;3.00;;;1.30;;
75554;SDS011;66087;53.126;17.960;2023-04-25T05:05:29;5.20;;;1.20;;
75554;SDS011;66087;53.126;17.960;2023-04-25T05:08:13;3.10;;;1.40;;
75554;SDS011;66087;53.126;17.960;2023-04-25T05:10:52;2.30;;;0.80;;
75554;SDS011;66087;53.126;17.960;2023-04-25T05:13:33;2.70;;;1.10;;
75554;SDS011;66087;53.126;17.960;2023-04-25T05:16:09;3.60;;;1.40;;
75554;SDS011;66087;53.126;17.960;2023-04-25T05:19:15;2.80;;;1.30;;
75554;SDS011;66087;53.126;17.960;2023-04-25T05:21:50;2.60;;;1.00;;
75554;SDS011;66087;53.126;17.960;2023-04-25T05:24:26;3.20;;;1.30;;
75554;SDS011;66087;53.126;17.960;2023-04-25T05:27:25;3.50;;;1.40;;
75554;SDS011;66087;53.126;17.960;2023-04-25T05:30:07;3.60;;;1.60;;
75554;SDS011;66087;53.126;17.960;2023-04-25T05:32:47;4.50;;;1.70;;
75554;SDS011;66087;53.126;17.960;2023-04-25T05:35:13;3.40;;;1.20;;
75554;SDS011;66087;53.126;17.960;2023-04-25T05:37:44;3.00;;;1.20;;
75554;SDS011;66087;53.126;17.960;2023-04-25T05:40:13;3.00;;;1.30;;
75554;SDS011;66087;53.126;17.960;2023-04-25T05:43:13;4.50;;;2.00;;
75554;SDS011;66087;53.126;17.960;2023-04-25T05:45:49;4.90;;;2.50;;
75554;SDS011;66087;53.126;17.960;2023-04-25T05:48:30;3.20;;;1.20;;
75554;SDS011;66087;53.126;17.960;2023-04-25T05:51:00;4.00;;;1.80;;
75554;SDS011;66087;53.126;17.960;2023-04-25T05:53:37;4.70;;;1.90;;
75554;SDS011;66087;53.126;17.960;2023-04-25T05:56:23;4.40;;;1.80;;
75554;SDS011;66087;53.126;17.960;2023-04-25T05:58:54;3.60;;;1.50;;
75554;SDS011;66087;53.126;17.960;2023-04-25T06:01:21;3.80;;;1.90;;
75554;SDS011;66087;53.126;17.960;2023-04-25T06:03:48;4.10;;;1.60;;
75554;SDS011;66087;53.126;17.960;2023-04-25T06:06:16;5.40;;;2.00;;
75554;SDS011;66087;53.126;17.960;2023-04-25T06:08:42;3.90;;;1.60;;
75554;SDS011;66087;53.126;17.960;2023-04-25T06:11:13;4.00;;;2.10;;
75554;SDS011;66087;53.126;17.960;2023-04-25T06:13:39;5.00;;;1.90;;
75554;SDS011;66087;53.126;17.960;2023-04-25T06:16:06;6.40;;;2.50;;
75554;SDS011;66087;53.126;17.960;2023-04-25T06:18:33;4.40;;;2.50;;
75554;SDS011;66087;53.126;17.960;2023-04-25T06:21:20;4.60;;;2.20;;
75554;SDS011;66087;53.126;17.960;2023-04-25T06:23:47;4.70;;;1.80;;
75554;SDS011;66087;53.126;17.960;2023-04-25T06:26:21;3.80;;;1.50;;
75554;SDS011;66087;53.126;17.960;2023-04-25T06:28:48;5.20;;;1.70;;
75554;SDS011;66087;53.126;17.960;2023-04-25T06:31:15;4.50;;;2.10;;
75554;SDS011;66087;53.126;17.960;2023-04-25T06:33:42;4.30;;;2.40;;
75554;SDS011;66087;53.126;17.960;2023-04-25T06:36:29;5.10;;;2.50;;
75554;SDS011;66087;53.126;17.960;2023-04-25T06:39:00;5.90;;;2.10;;
75554;SDS011;66087;53.126;17.960;2023-04-25T06:41:26;4.90;;;2.20;;
75554;SDS011;66087;53.126;17.960;2023-04-25T06:43:56;5.50;;;2.40;;
75554;SDS011;66087;53.126;17.960;2023-04-25T06:46:29;5.10;;;2.10;;
75554;SDS011;66087;53.126;17.960;2023-04-25T06:48:57;3.90;;;1.70;;
75554;SDS011;66087;53.126;17.960;2023-04-25T06:51:43;5.20;;;2.20;;
75554;SDS011;66087;53.126;17.960;2023-04-25T06:54:09;6.20;;;2.50;;
75554;SDS011;66087;53.126;17.960;2023-04-25T06:56:41;5.60;;;2.30;;
75554;SDS011;66087;53.126;17.960;2023-04-25T06:59:13;6.10;;;2.30;;
75554;SDS011;66087;53.126;17.960;2023-04-25T07:01:41;6.80;;;2.90;;
75554;SDS011;66087;53.126;17.960;2023-04-25T07:04:11;5.40;;;2.20;;
75554;SDS011;66087;53.126;17.960;2023-04-25T07:06:45;5.70;;;2.20;;
75554;SDS011;66087;53.126;17.960;2023-04-25T07:09:17;5.30;;;2.40;;
75554;SDS011;66087;53.126;17.960;2023-04-25T07:11:45;5.50;;;2.40;;
75554;SDS011;66087;53.126;17.960;2023-04-25T07:14:11;5.50;;;2.70;;
75554;SDS011;66087;53.126;17.960;2023-04-25T07:16:41;4.70;;;2.20;;
75554;SDS011;66087;53.126;17.960;2023-04-25T07:19:08;4.70;;;2.20;;
75554;SDS011;66087;53.126;17.960;2023-04-25T07:21:35;5.70;;;2.60;;
75554;SDS011;66087;53.126;17.960;2023-04-25T07:24:05;5.70;;;2.80;;
75554;SDS011;66087;53.126;17.960;2023-04-25T07:26:34;5.80;;;2.40;;
75554;SDS011;66087;53.126;17.960;2023-04-25T07:29:27;3.80;;;1.90;;
75554;SDS011;66087;53.126;17.960;2023-04-25T07:31:58;5.50;;;2.40;;
75554;SDS011;66087;53.126;17.960;2023-04-25T07:34:24;5.00;;;2.70;;
75554;SDS011;66087;53.126;17.960;2023-04-25T07:36:50;4.40;;;2.20;;
75554;SDS011;66087;53.126;17.960;2023-04-25T07:39:16;4.90;;;2.10;;
75554;SDS011;66087;53.126;17.960;2023-04-25T07:41:43;5.30;;;2.00;;
75554;SDS011;66087;53.126;17.960;2023-04-25T07:44:14;5.20;;;2.30;;
75554;SDS011;66087;53.126;17.960;2023-04-25T07:46:40;6.10;;;2.60;;
75554;SDS011;66087;53.126;17.960;2023-04-25T07:49:06;9.00;;;4.40;;
75554;SDS011;66087;53.126;17.960;2023-04-25T07:51:32;6.30;;;2.40;;
75554;SDS011;66087;53.126;17.960;2023-04-25T07:54:03;5.20;;;2.60;;
75554;SDS011;66087;53.126;17.960;2023-04-25T07:56:33;8.00;;;3.90;;
75554;SDS011;66087;53.126;17.960;2023-04-25T07:59:00;6.60;;;3.40;;
75554;SDS011;66087;53.126;17.960;2023-04-25T08:01:33;6.00;;;3.10;;
75554;SDS011;66087;53.126;17.960;2023-04-25T08:04:02;7.50;;;3.60;;
75554;SDS011;66087;53.126;17.960;2023-04-25T08:06:47;6.20;;;3.20;;
75554;SDS011;66087;53.126;17.960;2023-04-25T08:09:17;6.60;;;2.80;;
75554;SDS011;66087;53.126;17.960;2023-04-25T08:11:48;7.80;;;3.40;;
75554;SDS011;66087;53.126;17.960;2023-04-25T08:14:16;8.00;;;3.70;;
75554;SDS011;66087;53.126;17.960;2023-04-25T08:16:44;7.20;;;3.20;;
75554;SDS011;66087;53.126;17.960;2023-04-25T08:19:10;7.60;;;3.20;;
75554;SDS011;66087;53.126;17.960;2023-04-25T08:21:36;6.00;;;3.10;;
75554;SDS011;66087;53.126;17.960;2023-04-25T08:24:11;7.90;;;3.30;;
75554;SDS011;66087;53.126;17.960;2023-04-25T08:26:38;6.00;;;3.10;;
75554;SDS011;66087;53.126;17.960;2023-04-25T08:29:06;5.80;;;2.80;;
75554;SDS011;66087;53.126;17.960;2023-04-25T08:31:32;6.30;;;2.70;;
75554;SDS011;66087;53.126;17.960;2023-04-25T08:34:00;5.20;;;2.80;;
75554;SDS011;66087;53.126;17.960;2023-04-25T08:36:35;6.00;;;3.50;;
75554;SDS011;66087;53.126;17.960;2023-04-25T08:39:01;6.00;;;3.30;;
75554;SDS011;66087;53.126;17.960;2023-04-25T08:41:33;6.20;;;2.80;;
75554;SDS011;66087;53.126;17.960;2023-04-25T08:44:02;5.80;;;2.60;;
75554;SDS011;66087;53.126;17.960;2023-04-25T08:46:30;5.60;;;2.60;;
75554;SDS011;66087;53.126;17.960;2023-04-25T08:49:16;5.60;;;2.80;;
75554;SDS011;66087;53.126;17.960;2023-04-25T08:51:46;6.10;;;2.70;;
75554;SDS011;66087;53.126;17.960;2023-04-25T08:54:14;6.30;;;3.20;;
75554;SDS011;66087;53.126;17.960;2023-04-25T08:56:41;5.30;;;2.80;;
75554;SDS011;66087;53.126;17.960;2023-04-25T08:59:11;6.30;;;2.90;;
75554;SDS011;66087;53.126;17.960;2023-04-25T09:01:39;6.80;;;3.00;;
75554;SDS011;66087;53.126;17.960;2023-04-25T09:04:06;6.40;;;3.20;;
75554;SDS011;66087;53.126;17.960;2023-04-25T09:06:33;4.20;;;2.00;;
75554;SDS011;66087;53.126;17.960;2023-04-25T09:09:02;4.80;;;2.10;;
75554;SDS011;66087;53.126;17.960;2023-04-25T09:11:31;6.50;;;2.60;;
75554;SDS011;66087;53.126;17.960;2023-04-25T09:16:59;4.90;;;2.20;;
75554;SDS011;66087;53.126;17.960;2023-04-25T09:19:36;6.10;;;2.90;;
75554;SDS011;66087;53.126;17.960;2023-04-25T09:22:06;4.40;;;2.20;;
75554;SDS011;66087;53.126;17.960;2023-04-25T09:24:37;4.70;;;2.30;;
75554;SDS011;66087;53.126;17.960;2023-04-25T09:27:07;5.50;;;2.90;;
75554;SDS011;66087;53.126;17.960;2023-04-25T09:29:36;4.80;;;2.30;;
75554;SDS011;66087;53.126;17.960;2023-04-25T09:34:54;5.20;;;2.40;;
75554;SDS011;66087;53.126;17.960;2023-04-25T09:37:30;5.50;;;3.00;;
75554;SDS011;66087;53.126;17.960;2023-04-25T09:40:06;5.90;;;2.40;;
75554;SDS011;66087;53.126;17.960;2023-04-25T09:42:40;5.40;;;2.50;;
75554;SDS011;66087;53.126;17.960;2023-04-25T09:45:07;7.20;;;2.90;;
75554;SDS011;66087;53.126;17.960;2023-04-25T09:47:40;4.60;;;1.90;;
75554;SDS011;66087;53.126;17.960;2023-04-25T09:50:13;4.10;;;2.00;;
75554;SDS011;66087;53.126;17.960;2023-04-25T09:52:43;5.20;;;2.60;;
75554;SDS011;66087;53.126;17.960;2023-04-25T09:55:14;3.90;;;2.50;;
75554;SDS011;66087;53.126;17.960;2023-04-25T09:58:04;4.60;;;2.40;;
75554;SDS011;66087;53.126;17.960;2023-04-25T10:00:32;4.70;;;2.70;;
75554;SDS011;66087;53.126;17.960;2023-04-25T10:03:05;5.80;;;3.00;;
75554;SDS011;66087;53.126;17.960;2023-04-25T10:05:51;4.20;;;2.30;;
75554;SDS011;66087;53.126;17.960;2023-04-25T10:08:21;5.00;;;2.50;;
75554;SDS011;66087;53.126;17.960;2023-04-25T10:10:49;7.10;;;2.90;;
75554;SDS011;66087;53.126;17.960;2023-04-25T10:13:18;5.00;;;2.20;;
75554;SDS011;66087;53.126;17.960;2023-04-25T10:15:45;5.30;;;2.50;;
75554;SDS011;66087;53.126;17.960;2023-04-25T10:18:25;5.80;;;2.80;;
75554;SDS011;66087;53.126;17.960;2023-04-25T10:21:04;4.40;;;2.30;;
75554;SDS011;66087;53.126;17.960;2023-04-25T10:23:37;4.40;;;2.50;;
75554;SDS011;66087;53.126;17.960;2023-04-25T10:26:08;6.00;;;2.90;;
75554;SDS011;66087;53.126;17.960;2023-04-25T10:29:03;6.20;;;3.80;;
75554;SDS011;66087;53.126;17.960;2023-04-25T10:31:30;4.90;;;2.90;;
75554;SDS011;66087;53.126;17.960;2023-04-25T10:33:59;5.30;;;2.90;;
75554;SDS011;66087;53.126;17.960;2023-04-25T10:36:26;5.30;;;3.10;;
75554;SDS011;66087;53.126;17.960;2023-04-25T10:38:58;5.30;;;2.40;;
75554;SDS011;66087;53.126;17.960;2023-04-25T10:44:37;4.50;;;3.00;;
75554;SDS011;66087;53.126;17.960;2023-04-25T10:47:07;5.30;;;2.80;;
75554;SDS011;66087;53.126;17.960;2023-04-25T10:49:37;5.90;;;3.10;;
75554;SDS011;66087;53.126;17.960;2023-04-25T10:52:12;4.80;;;2.70;;
75554;SDS011;66087;53.126;17.960;2023-04-25T10:54:42;5.40;;;3.20;;
75554;SDS011;66087;53.126;17.960;2023-04-25T10:57:25;5.70;;;3.20;;
75554;SDS011;66087;53.126;17.960;2023-04-25T11:00:05;5.70;;;2.70;;
75554;SDS011;66087;53.126;17.960;2023-04-25T11:02:42;4.40;;;2.60;;
75554;SDS011;66087;53.126;17.960;2023-04-25T11:05:15;4.60;;;2.70;;
75554;SDS011;66087;53.126;17.960;2023-04-25T11:07:50;5.50;;;2.60;;
75554;SDS011;66087;53.126;17.960;2023-04-25T11:10:18;8.10;;;3.70;;
75554;SDS011;66087;53.126;17.960;2023-04-25T11:12:44;6.30;;;2.70;;
75554;SDS011;66087;53.126;17.960;2023-04-25T11:15:12;6.90;;;3.10;;
75554;SDS011;66087;53.126;17.960;2023-04-25T11:17:38;6.50;;;2.70;;
75554;SDS011;66087;53.126;17.960;2023-04-25T11:20:06;4.70;;;2.50;;
75554;SDS011;66087;53.126;17.960;2023-04-25T11:22:38;5.90;;;2.90;;
75554;SDS011;66087;53.126;17.960;2023-04-25T11:25:07;5.90;;;2.70;;
75554;SDS011;66087;53.126;17.960;2023-04-25T11:27:34;4.90;;;2.40;;
75554;SDS011;66087;53.126;17.960;2023-04-25T11:30:11;4.90;;;2.00;;
75554;SDS011;66087;53.126;17.960;2023-04-25T11:32:41;4.90;;;2.40;;
75554;SDS011;66087;53.126;17.960;2023-04-25T11:35:11;5.50;;;3.10;;
75554;SDS011;66087;53.126;17.960;2023-04-25T11:37:39;6.00;;;2.50;;
75554;SDS011;66087;53.126;17.960;2023-04-25T11:40:06;5.00;;;2.20;;
75554;SDS011;66087;53.126;17.960;2023-04-25T11:42:37;4.60;;;2.20;;
75554;SDS011;66087;53.126;17.960;2023-04-25T11:45:06;4.30;;;1.30;;
75554;SDS011;66087;53.126;17.960;2023-04-25T11:47:33;4.20;;;2.30;;
75554;SDS011;66087;53.126;17.960;2023-04-25T11:50:00;6.40;;;2.50;;
75554;SDS011;66087;53.126;17.960;2023-04-25T11:52:35;4.50;;;2.40;;
75554;SDS011;66087;53.126;17.960;2023-04-25T11:55:14;5.00;;;2.10;;
75554;SDS011;66087;53.126;17.960;2023-04-25T11:57:45;5.10;;;2.30;;
75554;SDS011;66087;53.126;17.960;2023-04-25T12:00:16;4.40;;;2.60;;
75554;SDS011;66087;53.126;17.960;2023-04-25T12:02:47;5.30;;;2.70;;
75554;SDS011;66087;53.126;17.960;2023-04-25T12:05:18;5.50;;;2.50;;
75554;SDS011;66087;53.126;17.960;2023-04-25T12:07:46;5.00;;;2.10;;
75554;SDS011;66087;53.126;17.960;2023-04-25T12:10:13;3.80;;;2.10;;
75554;SDS011;66087;53.126;17.960;2023-04-25T12:12:42;4.20;;;2.40;;
75554;SDS011;66087;53.126;17.960;2023-04-25T12:15:16;4.00;;;2.00;;
75554;SDS011;66087;53.126;17.960;2023-04-25T12:17:46;5.50;;;2.60;;
75554;SDS011;66087;53.126;17.960;2023-04-25T12:20:14;6.60;;;3.30;;
75554;SDS011;66087;53.126;17.960;2023-04-25T12:22:44;5.70;;;2.30;;
75554;SDS011;66087;53.126;17.960;2023-04-25T12:25:13;3.60;;;1.90;;
75554;SDS011;66087;53.126;17.960;2023-04-25T12:33:24;5.60;;;2.20;;
75554;SDS011;66087;53.126;17.960;2023-04-25T12:35:53;4.90;;;2.30;;
75554;SDS011;66087;53.126;17.960;2023-04-25T12:38:27;4.00;;;2.30;;
75554;SDS011;66087;53.126;17.960;2023-04-25T12:41:35;3.10;;;1.50;;
75554;SDS011;66087;53.126;17.960;2023-04-25T12:44:01;5.00;;;1.90;;
75554;SDS011;66087;53.126;17.960;2023-04-25T12:46:27;4.20;;;2.20;;
75554;SDS011;66087;53.126;17.960;2023-04-25T12:48:53;5.00;;;2.50;;
75554;SDS011;66087;53.126;17.960;2023-04-25T12:51:21;6.20;;;2.30;;
75554;SDS011;66087;53.126;17.960;2023-04-25T12:53:50;4.90;;;2.80;;
75554;SDS011;66087;53.126;17.960;2023-04-25T12:56:18;7.10;;;3.60;;
75554;SDS011;66087;53.126;17.960;2023-04-25T12:58:44;5.00;;;1.90;;
75554;SDS011;66087;53.126;17.960;2023-04-25T13:01:10;5.30;;;2.10;;
75554;SDS011;66087;53.126;17.960;2023-04-25T13:03:37;4.40;;;2.40;;
75554;SDS011;66087;53.126;17.960;2023-04-25T13:06:14;4.90;;;2.20;;
75554;SDS011;66087;53.126;17.960;2023-04-25T13:08:41;4.10;;;2.00;;
75554;SDS011;66087;53.126;17.960;2023-04-25T13:11:08;5.00;;;2.50;;
75554;SDS011;66087;53.126;17.960;2023-04-25T13:13:35;5.80;;;2.70;;
75554;SDS011;66087;53.126;17.960;2023-04-25T13:16:02;4.90;;;2.40;;
75554;SDS011;66087;53.126;17.960;2023-04-25T13:18:49;4.30;;;2.60;;
75554;SDS011;66087;53.126;17.960;2023-04-25T13:21:16;5.90;;;2.60;;
75554;SDS011;66087;53.126;17.960;2023-04-25T13:23:42;6.30;;;2.70;;
75554;SDS011;66087;53.126;17.960;2023-04-25T13:26:10;4.60;;;2.20;;
75554;SDS011;66087;53.126;17.960;2023-04-25T13:28:36;7.40;;;3.20;;
75554;SDS011;66087;53.126;17.960;2023-04-25T13:31:02;5.80;;;2.90;;
75554;SDS011;66087;53.126;17.960;2023-04-25T13:33:28;6.60;;;2.70;;
75554;SDS011;66087;53.126;17.960;2023-04-25T13:35:54;5.10;;;2.40;;
75554;SDS011;66087;53.126;17.960;2023-04-25T13:38:23;5.80;;;2.60;;
75554;SDS011;66087;53.126;17.960;2023-04-25T13:40:50;6.20;;;3.10;;
75554;SDS011;66087;53.126;17.960;2023-04-25T13:43:19;6.30;;;3.10;;
75554;SDS011;66087;53.126;17.960;2023-04-25T13:46:03;6.70;;;2.40;;
75554;SDS011;66087;53.126;17.960;2023-04-25T13:48:29;5.40;;;2.80;;
75554;SDS011;66087;53.126;17.960;2023-04-25T13:50:56;5.50;;;2.30;;
75554;SDS011;66087;53.126;17.960;2023-04-25T13:53:21;5.30;;;2.40;;
75554;SDS011;66087;53.126;17.960;2023-04-25T13:55:47;6.40;;;3.10;;
75554;SDS011;66087;53.126;17.960;2023-04-25T13:58:13;6.40;;;2.50;;
75554;SDS011;66087;53.126;17.960;2023-04-25T14:00:40;8.10;;;2.90;;
75554;SDS011;66087;53.126;17.960;2023-04-25T14:03:08;4.30;;;2.20;;
75554;SDS011;66087;53.126;17.960;2023-04-25T14:05:35;5.40;;;2.30;;
75554;SDS011;66087;53.126;17.960;2023-04-25T14:08:07;4.10;;;2.00;;
75554;SDS011;66087;53.126;17.960;2023-04-25T14:10:34;4.90;;;1.90;;
75554;SDS011;66087;53.126;17.960;2023-04-25T14:13:20;4.20;;;2.30;;
75554;SDS011;66087;53.126;17.960;2023-04-25T14:15:47;8.90;;;2.40;;
75554;SDS011;66087;53.126;17.960;2023-04-25T14:18:13;5.50;;;2.50;;
75554;SDS011;66087;53.126;17.960;2023-04-25T14:20:39;5.70;;;2.60;;
75554;SDS011;66087;53.126;17.960;2023-04-25T14:23:05;6.10;;;2.40;;
75554;SDS011;66087;53.126;17.960;2023-04-25T14:25:31;6.20;;;2.80;;
75554;SDS011;66087;53.126;17.960;2023-04-25T14:27:57;6.10;;;2.90;;
75554;SDS011;66087;53.126;17.960;2023-04-25T14:30:23;5.90;;;2.70;;
75554;SDS011;66087;53.126;17.960;2023-04-25T14:32:49;5.90;;;2.00;;
75554;SDS011;66087;53.126;17.960;2023-04-25T14:35:16;4.00;;;1.80;;
75554;SDS011;66087;53.126;17.960;2023-04-25T14:37:42;4.50;;;1.80;;
75554;SDS011;66087;53.126;17.960;2023-04-25T14:40:08;3.90;;;1.90;;
75554;SDS011;66087;53.126;17.960;2023-04-25T14:42:36;6.10;;;2.20;;
75554;SDS011;66087;53.126;17.960;2023-04-25T14:45:04;7.90;;;2.30;;
75554;SDS011;66087;53.126;17.960;2023-04-25T14:47:32;6.70;;;2.20;;
75554;SDS011;66087;53.126;17.960;2023-04-25T14:50:18;6.00;;;2.70;;
75554;SDS011;66087;53.126;17.960;2023-04-25T14:52:44;5.40;;;2.20;;
75554;SDS011;66087;53.126;17.960;2023-04-25T14:55:31;5.90;;;2.40;;
75554;SDS011;66087;53.126;17.960;2023-04-25T14:57:57;6.60;;;3.10;;
75554;SDS011;66087;53.126;17.960;2023-04-25T15:00:23;5.40;;;2.30;;
75554;SDS011;66087;53.126;17.960;2023-04-25T15:02:50;9.30;;;2.90;;
75554;SDS011;66087;53.126;17.960;2023-04-25T15:05:17;7.60;;;3.10;;
75554;SDS011;66087;53.126;17.960;2023-04-25T15:07:43;6.70;;;2.90;;